sensor_id;sensor_type;location;lat;lon;timestamp;P1;durP1;ratioP1;P2;durP2;ratioP2
8564;SDS011;4320;51.498;6.556;2024-03-07T00:02:20;75.50;;;35.95;;
8564;SDS011;4320;51.498;6.556;2024-03-07T00:04:46;67.75;;;35.72;;
8564;SDS011;4320;51.498;6.556;2024-03-07T00:07:11;70.20;;;35.65;;
8564;SDS011;4320;51.498;6.556;2024-03-07T00:09:37;63.15;;;34.90;;
8564;SDS011;4320;51.498;6.556;2024-03-07T00:12:06;72.47;;;35.63;;
8564;SDS011;4320;51.498;6.556;2024-03-07T00:14:32;62.47;;;32.65;;
8564;SDS011;4320;51.498;6.556;2024-03-07T00:17:00;66.18;;;34.25;;
8564;SDS011;4320;51.498;6.556;2024-03-07T00:19:27;72.03;;;35.13;;
8564;SDS011;4320;51.498;6.556;2024-03-07T00:21:54;70.50;;;35.60;;
8564;SDS011;4320;51.498;6.556;2024-03-07T00:24:21;64.78;;;32.75;;
8564;SDS011;4320;51.498;6.556;2024-03-07T00:26:46;62.10;;;33.20;;
8564;SDS011;4320;51.498;6.556;2024-03-07T00:29:15;71.38;;;35.95;;
8564;SDS011;4320;51.498;6.556;2024-03-07T00:31:43;64.80;;;33.35;;
8564;SDS011;4320;51.498;6.556;2024-03-07T00:34:09;65.85;;;34.47;;
8564;SDS011;4320;51.498;6.556;2024-03-07T00:36:35;67.75;;;35.30;;
8564;SDS011;4320;51.498;6.556;2024-03-07T00:39:00;69.28;;;34.17;;
8564;SDS011;4320;51.498;6.556;2024-03-07T00:41:26;73.32;;;36.42;;
8564;SDS011;4320;51.498;6.556;2024-03-07T00:43:53;70.40;;;35.45;;
8564;SDS011;4320;51.498;6.556;2024-03-07T00:46:18;63.03;;;33.92;;
8564;SDS011;4320;51.498;6.556;2024-03-07T00:48:44;65.35;;;32.08;;
8564;SDS011;4320;51.498;6.556;2024-03-07T00:51:11;63.53;;;33.50;;
8564;SDS011;4320;51.498;6.556;2024-03-07T00:53:36;71.70;;;34.13;;
8564;SDS011;4320;51.498;6.556;2024-03-07T00:56:02;71.18;;;35.13;;
8564;SDS011;4320;51.498;6.556;2024-03-07T00:58:28;72.68;;;36.67;;
8564;SDS011;4320;51.498;6.556;2024-03-07T01:00:53;73.20;;;35.33;;
8564;SDS011;4320;51.498;6.556;2024-03-07T01:03:19;69.80;;;36.13;;
8564;SDS011;4320;51.498;6.556;2024-03-07T01:05:45;70.75;;;35.70;;
8564;SDS011;4320;51.498;6.556;2024-03-07T01:08:10;65.88;;;34.65;;
8564;SDS011;4320;51.498;6.556;2024-03-07T01:10:36;68.53;;;35.00;;
8564;SDS011;4320;51.498;6.556;2024-03-07T01:13:02;71.35;;;36.20;;
8564;SDS011;4320;51.498;6.556;2024-03-07T01:15:31;67.85;;;33.63;;
8564;SDS011;4320;51.498;6.556;2024-03-07T01:17:57;76.40;;;36.30;;
8564;SDS011;4320;51.498;6.556;2024-03-07T01:20:23;66.78;;;34.08;;
8564;SDS011;4320;51.498;6.556;2024-03-07T01:22:50;74.22;;;37.33;;
8564;SDS011;4320;51.498;6.556;2024-03-07T01:25:18;80.37;;;37.17;;
8564;SDS011;4320;51.498;6.556;2024-03-07T01:27:46;74.30;;;35.53;;
8564;SDS011;4320;51.498;6.556;2024-03-07T01:30:12;72.53;;;37.10;;
8564;SDS011;4320;51.498;6.556;2024-03-07T01:32:38;70.60;;;35.92;;
8564;SDS011;4320;51.498;6.556;2024-03-07T01:35:04;64.95;;;34.88;;
8564;SDS011;4320;51.498;6.556;2024-03-07T01:37:32;69.30;;;36.22;;
8564;SDS011;4320;51.498;6.556;2024-03-07T01:39:58;73.37;;;35.13;;
8564;SDS011;4320;51.498;6.556;2024-03-07T01:42:23;66.60;;;36.15;;
8564;SDS011;4320;51.498;6.556;2024-03-07T01:44:50;63.90;;;34.47;;
8564;SDS011;4320;51.498;6.556;2024-03-07T01:47:16;73.10;;;34.93;;
8564;SDS011;4320;51.498;6.556;2024-03-07T01:49:42;69.13;;;35.73;;
8564;SDS011;4320;51.498;6.556;2024-03-07T01:52:08;73.53;;;37.35;;
8564;SDS011;4320;51.498;6.556;2024-03-07T01:54:35;73.90;;;35.47;;
8564;SDS011;4320;51.498;6.556;2024-03-07T01:57:01;70.33;;;34.83;;
8564;SDS011;4320;51.498;6.556;2024-03-07T01:59:29;70.13;;;34.67;;
8564;SDS011;4320;51.498;6.556;2024-03-07T02:01:55;67.47;;;35.92;;
8564;SDS011;4320;51.498;6.556;2024-03-07T02:04:21;71.70;;;35.17;;
8564;SDS011;4320;51.498;6.556;2024-03-07T02:06:48;64.25;;;35.33;;
8564;SDS011;4320;51.498;6.556;2024-03-07T02:09:15;65.70;;;34.03;;
8564;SDS011;4320;51.498;6.556;2024-03-07T02:11:42;65.38;;;33.72;;
8564;SDS011;4320;51.498;6.556;2024-03-07T02:14:07;70.18;;;35.50;;
8564;SDS011;4320;51.498;6.556;2024-03-07T02:16:33;68.50;;;36.05;;
8564;SDS011;4320;51.498;6.556;2024-03-07T02:18:59;70.53;;;35.88;;
8564;SDS011;4320;51.498;6.556;2024-03-07T02:21:25;71.53;;;35.97;;
8564;SDS011;4320;51.498;6.556;2024-03-07T02:23:51;69.55;;;34.65;;
8564;SDS011;4320;51.498;6.556;2024-03-07T02:26:16;68.03;;;35.28;;
8564;SDS011;4320;51.498;6.556;2024-03-07T02:28:43;73.72;;;37.17;;
8564;SDS011;4320;51.498;6.556;2024-03-07T02:31:09;62.58;;;33.38;;
8564;SDS011;4320;51.498;6.556;2024-03-07T02:33:34;68.05;;;34.88;;
8564;SDS011;4320;51.498;6.556;2024-03-07T02:36:00;64.97;;;33.78;;
8564;SDS011;4320;51.498;6.556;2024-03-07T02:38:26;72.05;;;36.22;;
8564;SDS011;4320;51.498;6.556;2024-03-07T02:40:51;67.13;;;34.88;;
8564;SDS011;4320;51.498;6.556;2024-03-07T02:43:17;63.92;;;35.65;;
8564;SDS011;4320;51.498;6.556;2024-03-07T02:45:43;71.78;;;35.22;;
8564;SDS011;4320;51.498;6.556;2024-03-07T02:48:08;68.03;;;35.88;;
8564;SDS011;4320;51.498;6.556;2024-03-07T02:50:37;65.07;;;34.75;;
8564;SDS011;4320;51.498;6.556;2024-03-07T02:53:06;69.63;;;34.70;;
8564;SDS011;4320;51.498;6.556;2024-03-07T02:55:32;70.40;;;36.13;;
8564;SDS011;4320;51.498;6.556;2024-03-07T02:57:59;66.28;;;35.60;;
8564;SDS011;4320;51.498;6.556;2024-03-07T03:00:25;66.45;;;34.25;;
8564;SDS011;4320;51.498;6.556;2024-03-07T03:02:55;65.43;;;34.60;;
8564;SDS011;4320;51.498;6.556;2024-03-07T03:05:21;61.53;;;34.00;;
8564;SDS011;4320;51.498;6.556;2024-03-07T03:07:47;64.80;;;33.03;;
8564;SDS011;4320;51.498;6.556;2024-03-07T03:10:22;62.43;;;35.00;;
8564;SDS011;4320;51.498;6.556;2024-03-07T03:12:51;63.30;;;34.85;;
8564;SDS011;4320;51.498;6.556;2024-03-07T03:15:19;64.30;;;33.92;;
8564;SDS011;4320;51.498;6.556;2024-03-07T03:17:45;64.07;;;35.08;;
8564;SDS011;4320;51.498;6.556;2024-03-07T03:20:11;62.35;;;34.22;;
8564;SDS011;4320;51.498;6.556;2024-03-07T03:22:49;65.38;;;34.42;;
8564;SDS011;4320;51.498;6.556;2024-03-07T03:25:19;67.85;;;34.35;;
8564;SDS011;4320;51.498;6.556;2024-03-07T03:27:48;65.50;;;34.83;;
8564;SDS011;4320;51.498;6.556;2024-03-07T03:30:14;62.95;;;34.28;;
8564;SDS011;4320;51.498;6.556;2024-03-07T03:32:41;74.70;;;41.10;;
8564;SDS011;4320;51.498;6.556;2024-03-07T03:35:07;68.10;;;35.10;;
8564;SDS011;4320;51.498;6.556;2024-03-07T03:37:38;65.70;;;32.80;;
8564;SDS011;4320;51.498;6.556;2024-03-07T03:40:05;60.63;;;33.95;;
8564;SDS011;4320;51.498;6.556;2024-03-07T03:42:31;74.00;;;37.10;;
8564;SDS011;4320;51.498;6.556;2024-03-07T03:44:57;60.93;;;33.57;;
8564;SDS011;4320;51.498;6.556;2024-03-07T03:47:22;60.45;;;34.22;;
8564;SDS011;4320;51.498;6.556;2024-03-07T03:49:48;64.00;;;32.85;;
8564;SDS011;4320;51.498;6.556;2024-03-07T03:52:14;91.53;;;44.47;;
8564;SDS011;4320;51.498;6.556;2024-03-07T03:54:39;58.33;;;32.88;;
8564;SDS011;4320;51.498;6.556;2024-03-07T03:57:05;64.88;;;34.60;;
8564;SDS011;4320;51.498;6.556;2024-03-07T03:59:31;66.32;;;34.95;;
8564;SDS011;4320;51.498;6.556;2024-03-07T04:01:56;59.33;;;34.08;;
8564;SDS011;4320;51.498;6.556;2024-03-07T04:04:22;63.30;;;34.73;;
8564;SDS011;4320;51.498;6.556;2024-03-07T04:06:50;56.13;;;32.53;;
8564;SDS011;4320;51.498;6.556;2024-03-07T04:09:16;72.77;;;38.27;;
8564;SDS011;4320;51.498;6.556;2024-03-07T04:11:44;63.03;;;34.23;;
8564;SDS011;4320;51.498;6.556;2024-03-07T04:14:10;54.47;;;30.77;;
8564;SDS011;4320;51.498;6.556;2024-03-07T04:16:36;62.73;;;34.20;;
8564;SDS011;4320;51.498;6.556;2024-03-07T04:19:01;64.70;;;35.20;;
8564;SDS011;4320;51.498;6.556;2024-03-07T04:21:27;60.40;;;31.87;;
8564;SDS011;4320;51.498;6.556;2024-03-07T04:23:53;58.10;;;32.22;;
8564;SDS011;4320;51.498;6.556;2024-03-07T04:26:18;56.90;;;32.97;;
8564;SDS011;4320;51.498;6.556;2024-03-07T04:28:44;57.30;;;31.80;;
8564;SDS011;4320;51.498;6.556;2024-03-07T04:31:10;61.07;;;34.47;;
8564;SDS011;4320;51.498;6.556;2024-03-07T04:33:35;53.73;;;31.30;;
8564;SDS011;4320;51.498;6.556;2024-03-07T04:36:01;57.07;;;32.33;;
8564;SDS011;4320;51.498;6.556;2024-03-07T04:38:27;56.77;;;31.37;;
8564;SDS011;4320;51.498;6.556;2024-03-07T04:40:53;53.47;;;31.00;;
8564;SDS011;4320;51.498;6.556;2024-03-07T04:43:18;59.57;;;32.63;;
8564;SDS011;4320;51.498;6.556;2024-03-07T04:45:45;53.20;;;31.65;;
8564;SDS011;4320;51.498;6.556;2024-03-07T04:48:11;56.38;;;31.13;;
8564;SDS011;4320;51.498;6.556;2024-03-07T04:50:38;53.38;;;31.40;;
8564;SDS011;4320;51.498;6.556;2024-03-07T04:53:03;53.73;;;30.60;;
8564;SDS011;4320;51.498;6.556;2024-03-07T04:55:32;53.47;;;31.93;;
8564;SDS011;4320;51.498;6.556;2024-03-07T04:57:58;54.40;;;30.70;;
8564;SDS011;4320;51.498;6.556;2024-03-07T05:00:23;58.70;;;32.87;;
8564;SDS011;4320;51.498;6.556;2024-03-07T05:02:49;58.47;;;32.00;;
8564;SDS011;4320;51.498;6.556;2024-03-07T05:05:15;56.33;;;31.53;;
8564;SDS011;4320;51.498;6.556;2024-03-07T05:07:47;53.53;;;31.63;;
8564;SDS011;4320;51.498;6.556;2024-03-07T05:10:16;53.65;;;31.27;;
8564;SDS011;4320;51.498;6.556;2024-03-07T05:12:42;53.03;;;31.10;;
8564;SDS011;4320;51.498;6.556;2024-03-07T05:15:08;52.50;;;30.17;;
8564;SDS011;4320;51.498;6.556;2024-03-07T05:17:34;54.92;;;30.63;;
8564;SDS011;4320;51.498;6.556;2024-03-07T05:20:03;53.47;;;30.40;;
8564;SDS011;4320;51.498;6.556;2024-03-07T05:22:34;59.27;;;30.53;;
8564;SDS011;4320;51.498;6.556;2024-03-07T05:25:04;57.27;;;32.23;;
8564;SDS011;4320;51.498;6.556;2024-03-07T05:27:30;53.50;;;31.27;;
8564;SDS011;4320;51.498;6.556;2024-03-07T05:29:56;60.47;;;33.20;;
8564;SDS011;4320;51.498;6.556;2024-03-07T05:32:23;55.53;;;32.07;;
8564;SDS011;4320;51.498;6.556;2024-03-07T05:34:50;52.67;;;30.70;;
8564;SDS011;4320;51.498;6.556;2024-03-07T05:37:18;57.50;;;32.13;;
8564;SDS011;4320;51.498;6.556;2024-03-07T05:39:46;54.43;;;31.17;;
8564;SDS011;4320;51.498;6.556;2024-03-07T05:42:15;56.27;;;30.93;;
8564;SDS011;4320;51.498;6.556;2024-03-07T05:44:41;55.10;;;32.97;;
8564;SDS011;4320;51.498;6.556;2024-03-07T05:47:07;55.37;;;31.77;;
8564;SDS011;4320;51.498;6.556;2024-03-07T05:49:34;53.43;;;30.47;;
8564;SDS011;4320;51.498;6.556;2024-03-07T05:51:59;54.00;;;31.40;;
8564;SDS011;4320;51.498;6.556;2024-03-07T05:54:25;57.27;;;30.50;;
8564;SDS011;4320;51.498;6.556;2024-03-07T05:56:51;53.20;;;31.77;;
8564;SDS011;4320;51.498;6.556;2024-03-07T05:59:16;56.23;;;31.57;;
8564;SDS011;4320;51.498;6.556;2024-03-07T06:01:42;58.03;;;31.87;;
8564;SDS011;4320;51.498;6.556;2024-03-07T06:04:14;53.43;;;30.80;;
8564;SDS011;4320;51.498;6.556;2024-03-07T06:06:40;50.43;;;30.33;;
8564;SDS011;4320;51.498;6.556;2024-03-07T06:09:07;48.23;;;28.10;;
8564;SDS011;4320;51.498;6.556;2024-03-07T06:14:00;53.43;;;30.27;;
8564;SDS011;4320;51.498;6.556;2024-03-07T06:16:29;49.80;;;29.43;;
8564;SDS011;4320;51.498;6.556;2024-03-07T06:18:58;47.53;;;27.93;;
8564;SDS011;4320;51.498;6.556;2024-03-07T06:21:27;51.10;;;29.20;;
8564;SDS011;4320;51.498;6.556;2024-03-07T06:23:53;51.03;;;29.50;;
8564;SDS011;4320;51.498;6.556;2024-03-07T06:26:33;50.90;;;28.53;;
8564;SDS011;4320;51.498;6.556;2024-03-07T06:29:10;47.00;;;28.23;;
8564;SDS011;4320;51.498;6.556;2024-03-07T06:31:39;56.43;;;30.00;;
8564;SDS011;4320;51.498;6.556;2024-03-07T06:34:06;50.07;;;28.47;;
8564;SDS011;4320;51.498;6.556;2024-03-07T06:36:31;45.33;;;26.43;;
8564;SDS011;4320;51.498;6.556;2024-03-07T06:38:57;50.93;;;28.47;;
8564;SDS011;4320;51.498;6.556;2024-03-07T06:41:23;52.80;;;27.33;;
8564;SDS011;4320;51.498;6.556;2024-03-07T06:43:50;44.13;;;28.50;;
8564;SDS011;4320;51.498;6.556;2024-03-07T06:46:18;41.70;;;26.23;;
8564;SDS011;4320;51.498;6.556;2024-03-07T06:48:45;42.00;;;26.17;;
8564;SDS011;4320;51.498;6.556;2024-03-07T06:51:10;42.60;;;26.33;;
8564;SDS011;4320;51.498;6.556;2024-03-07T06:53:36;43.47;;;26.07;;
8564;SDS011;4320;51.498;6.556;2024-03-07T06:56:02;42.53;;;26.10;;
8564;SDS011;4320;51.498;6.556;2024-03-07T06:58:28;41.07;;;25.77;;
8564;SDS011;4320;51.498;6.556;2024-03-07T07:00:54;43.10;;;25.40;;
8564;SDS011;4320;51.498;6.556;2024-03-07T07:03:20;43.80;;;26.13;;
8564;SDS011;4320;51.498;6.556;2024-03-07T07:05:47;41.53;;;24.87;;
8564;SDS011;4320;51.498;6.556;2024-03-07T07:08:13;44.83;;;26.37;;
8564;SDS011;4320;51.498;6.556;2024-03-07T07:10:39;41.20;;;26.13;;
8564;SDS011;4320;51.498;6.556;2024-03-07T07:13:05;43.50;;;25.50;;
8564;SDS011;4320;51.498;6.556;2024-03-07T07:15:32;37.13;;;24.30;;
8564;SDS011;4320;51.498;6.556;2024-03-07T07:17:58;30.77;;;20.80;;
8564;SDS011;4320;51.498;6.556;2024-03-07T07:20:24;29.60;;;21.83;;
8564;SDS011;4320;51.498;6.556;2024-03-07T07:22:50;31.00;;;20.40;;
8564;SDS011;4320;51.498;6.556;2024-03-07T07:25:18;29.75;;;21.80;;
8564;SDS011;4320;51.498;6.556;2024-03-07T07:27:51;31.05;;;21.33;;
8564;SDS011;4320;51.498;6.556;2024-03-07T07:30:19;30.92;;;22.75;;
8564;SDS011;4320;51.498;6.556;2024-03-07T07:32:49;31.02;;;20.92;;
8564;SDS011;4320;51.498;6.556;2024-03-07T07:35:16;28.90;;;21.92;;
8564;SDS011;4320;51.498;6.556;2024-03-07T07:37:44;25.95;;;20.55;;
8564;SDS011;4320;51.498;6.556;2024-03-07T07:40:17;26.75;;;20.35;;
8564;SDS011;4320;51.498;6.556;2024-03-07T07:42:45;28.33;;;21.73;;
8564;SDS011;4320;51.498;6.556;2024-03-07T07:45:11;29.77;;;21.23;;
8564;SDS011;4320;51.498;6.556;2024-03-07T07:47:39;25.33;;;20.27;;
8564;SDS011;4320;51.498;6.556;2024-03-07T07:52:39;26.35;;;20.60;;
8564;SDS011;4320;51.498;6.556;2024-03-07T07:55:15;28.55;;;20.98;;
8564;SDS011;4320;51.498;6.556;2024-03-07T07:57:42;25.23;;;19.80;;
8564;SDS011;4320;51.498;6.556;2024-03-07T08:00:12;26.58;;;18.95;;
8564;SDS011;4320;51.498;6.556;2024-03-07T08:02:53;23.88;;;19.35;;
8564;SDS011;4320;51.498;6.556;2024-03-07T08:05:21;24.88;;;19.52;;
8564;SDS011;4320;51.498;6.556;2024-03-07T08:07:50;27.08;;;19.63;;
8564;SDS011;4320;51.498;6.556;2024-03-07T08:10:20;26.23;;;19.70;;
8564;SDS011;4320;51.498;6.556;2024-03-07T08:12:48;25.60;;;19.08;;
8564;SDS011;4320;51.498;6.556;2024-03-07T08:15:14;24.98;;;19.35;;
8564;SDS011;4320;51.498;6.556;2024-03-07T08:17:41;25.67;;;19.05;;
8564;SDS011;4320;51.498;6.556;2024-03-07T08:20:10;22.83;;;19.00;;
8564;SDS011;4320;51.498;6.556;2024-03-07T08:22:38;25.90;;;19.73;;
8564;SDS011;4320;51.498;6.556;2024-03-07T08:25:05;22.02;;;18.77;;
8564;SDS011;4320;51.498;6.556;2024-03-07T08:27:35;22.92;;;19.45;;
8564;SDS011;4320;51.498;6.556;2024-03-07T08:30:02;23.95;;;19.40;;
8564;SDS011;4320;51.498;6.556;2024-03-07T08:32:31;23.15;;;19.23;;
8564;SDS011;4320;51.498;6.556;2024-03-07T08:34:59;26.63;;;19.65;;
8564;SDS011;4320;51.498;6.556;2024-03-07T08:37:31;24.38;;;19.00;;
8564;SDS011;4320;51.498;6.556;2024-03-07T08:39:57;23.10;;;19.10;;
8564;SDS011;4320;51.498;6.556;2024-03-07T08:42:23;25.50;;;19.33;;
8564;SDS011;4320;51.498;6.556;2024-03-07T08:44:48;26.23;;;19.48;;
8564;SDS011;4320;51.498;6.556;2024-03-07T08:47:14;22.00;;;18.52;;
8564;SDS011;4320;51.498;6.556;2024-03-07T08:49:39;26.10;;;18.58;;
8564;SDS011;4320;51.498;6.556;2024-03-07T08:52:05;24.38;;;19.30;;
8564;SDS011;4320;51.498;6.556;2024-03-07T08:54:32;28.60;;;19.85;;
8564;SDS011;4320;51.498;6.556;2024-03-07T08:56:58;24.83;;;19.20;;
8564;SDS011;4320;51.498;6.556;2024-03-07T08:59:24;27.38;;;20.38;;
8564;SDS011;4320;51.498;6.556;2024-03-07T09:01:50;31.33;;;20.42;;
8564;SDS011;4320;51.498;6.556;2024-03-07T09:04:17;26.77;;;18.88;;
8564;SDS011;4320;51.498;6.556;2024-03-07T09:06:43;27.23;;;20.08;;
8564;SDS011;4320;51.498;6.556;2024-03-07T09:09:10;30.58;;;19.33;;
8564;SDS011;4320;51.498;6.556;2024-03-07T09:11:35;25.02;;;18.88;;
8564;SDS011;4320;51.498;6.556;2024-03-07T09:14:02;24.55;;;18.05;;
8564;SDS011;4320;51.498;6.556;2024-03-07T09:16:29;30.05;;;18.02;;
8564;SDS011;4320;51.498;6.556;2024-03-07T09:18:54;21.10;;;16.90;;
8564;SDS011;4320;51.498;6.556;2024-03-07T09:21:20;20.30;;;16.67;;
8564;SDS011;4320;51.498;6.556;2024-03-07T09:23:45;18.35;;;14.48;;
8564;SDS011;4320;51.498;6.556;2024-03-07T09:26:11;17.95;;;14.68;;
8564;SDS011;4320;51.498;6.556;2024-03-07T09:28:36;23.73;;;15.02;;
8564;SDS011;4320;51.498;6.556;2024-03-07T09:31:02;18.38;;;15.05;;
8564;SDS011;4320;51.498;6.556;2024-03-07T09:33:28;20.00;;;15.02;;
8564;SDS011;4320;51.498;6.556;2024-03-07T09:35:53;16.80;;;13.18;;
8564;SDS011;4320;51.498;6.556;2024-03-07T09:38:19;22.20;;;14.18;;
8564;SDS011;4320;51.498;6.556;2024-03-07T09:40:46;20.35;;;13.32;;
8564;SDS011;4320;51.498;6.556;2024-03-07T09:43:12;20.85;;;14.05;;
8564;SDS011;4320;51.498;6.556;2024-03-07T09:45:38;17.20;;;13.00;;
8564;SDS011;4320;51.498;6.556;2024-03-07T09:48:05;23.15;;;13.90;;
8564;SDS011;4320;51.498;6.556;2024-03-07T09:50:34;22.17;;;14.48;;
8564;SDS011;4320;51.498;6.556;2024-03-07T09:53:00;21.95;;;14.10;;
8564;SDS011;4320;51.498;6.556;2024-03-07T09:55:29;20.80;;;14.60;;
8564;SDS011;4320;51.498;6.556;2024-03-07T09:57:56;19.10;;;14.45;;
8564;SDS011;4320;51.498;6.556;2024-03-07T10:00:25;18.70;;;13.63;;
8564;SDS011;4320;51.498;6.556;2024-03-07T10:03:13;24.35;;;15.05;;
8564;SDS011;4320;51.498;6.556;2024-03-07T10:05:39;19.80;;;13.65;;
8564;SDS011;4320;51.498;6.556;2024-03-07T10:08:05;21.83;;;15.00;;
8564;SDS011;4320;51.498;6.556;2024-03-07T10:10:32;21.38;;;14.85;;
8564;SDS011;4320;51.498;6.556;2024-03-07T10:12:58;23.20;;;16.55;;
8564;SDS011;4320;51.498;6.556;2024-03-07T10:15:28;21.20;;;15.82;;
8564;SDS011;4320;51.498;6.556;2024-03-07T10:17:54;24.02;;;15.50;;
8564;SDS011;4320;51.498;6.556;2024-03-07T10:20:19;22.08;;;15.75;;
8564;SDS011;4320;51.498;6.556;2024-03-07T10:22:47;21.42;;;15.32;;
8564;SDS011;4320;51.498;6.556;2024-03-07T10:25:16;22.35;;;15.68;;
8564;SDS011;4320;51.498;6.556;2024-03-07T10:27:43;21.38;;;15.27;;
8564;SDS011;4320;51.498;6.556;2024-03-07T10:30:09;20.08;;;14.23;;
8564;SDS011;4320;51.498;6.556;2024-03-07T10:32:40;21.27;;;13.30;;
8564;SDS011;4320;51.498;6.556;2024-03-07T10:35:06;21.55;;;13.18;;
8564;SDS011;4320;51.498;6.556;2024-03-07T10:37:34;19.98;;;13.80;;
8564;SDS011;4320;51.498;6.556;2024-03-07T10:40:00;18.45;;;13.60;;
8564;SDS011;4320;51.498;6.556;2024-03-07T10:42:27;20.85;;;13.82;;
8564;SDS011;4320;51.498;6.556;2024-03-07T10:44:55;21.23;;;13.38;;
8564;SDS011;4320;51.498;6.556;2024-03-07T10:47:27;19.33;;;13.45;;
8564;SDS011;4320;51.498;6.556;2024-03-07T10:50:17;20.75;;;14.43;;
8564;SDS011;4320;51.498;6.556;2024-03-07T10:53:07;20.10;;;14.02;;
8564;SDS011;4320;51.498;6.556;2024-03-07T10:58:45;19.40;;;13.65;;
8564;SDS011;4320;51.498;6.556;2024-03-07T11:01:22;21.40;;;13.48;;
8564;SDS011;4320;51.498;6.556;2024-03-07T11:03:50;21.00;;;14.48;;
8564;SDS011;4320;51.498;6.556;2024-03-07T11:06:17;18.77;;;13.85;;
8564;SDS011;4320;51.498;6.556;2024-03-07T11:08:44;22.33;;;14.98;;
8564;SDS011;4320;51.498;6.556;2024-03-07T11:11:11;20.88;;;14.35;;
8564;SDS011;4320;51.498;6.556;2024-03-07T11:13:37;20.95;;;13.82;;
8564;SDS011;4320;51.498;6.556;2024-03-07T11:16:04;20.65;;;13.70;;
8564;SDS011;4320;51.498;6.556;2024-03-07T11:18:31;21.17;;;13.40;;
8564;SDS011;4320;51.498;6.556;2024-03-07T11:20:56;20.65;;;13.32;;
8564;SDS011;4320;51.498;6.556;2024-03-07T11:28:33;19.20;;;13.52;;
8564;SDS011;4320;51.498;6.556;2024-03-07T11:33:36;18.95;;;13.40;;
8564;SDS011;4320;51.498;6.556;2024-03-07T11:36:05;21.05;;;13.55;;
8564;SDS011;4320;51.498;6.556;2024-03-07T11:38:37;19.58;;;12.48;;
8564;SDS011;4320;51.498;6.556;2024-03-07T11:41:03;19.30;;;12.13;;
8564;SDS011;4320;51.498;6.556;2024-03-07T11:43:33;21.73;;;13.77;;
8564;SDS011;4320;51.498;6.556;2024-03-07T11:46:00;18.00;;;13.30;;
8564;SDS011;4320;51.498;6.556;2024-03-07T11:48:26;16.27;;;12.63;;
8564;SDS011;4320;51.498;6.556;2024-03-07T11:50:52;17.98;;;13.23;;
8564;SDS011;4320;51.498;6.556;2024-03-07T11:53:20;21.58;;;13.05;;
8564;SDS011;4320;51.498;6.556;2024-03-07T11:55:46;19.10;;;14.13;;
8564;SDS011;4320;51.498;6.556;2024-03-07T11:58:16;19.80;;;14.02;;
8564;SDS011;4320;51.498;6.556;2024-03-07T12:00:46;19.05;;;14.38;;
8564;SDS011;4320;51.498;6.556;2024-03-07T12:03:13;24.17;;;14.63;;
8564;SDS011;4320;51.498;6.556;2024-03-07T12:05:42;19.90;;;14.77;;
8564;SDS011;4320;51.498;6.556;2024-03-07T12:08:08;16.88;;;13.85;;
8564;SDS011;4320;51.498;6.556;2024-03-07T12:10:36;18.30;;;14.40;;
8564;SDS011;4320;51.498;6.556;2024-03-07T12:13:04;20.05;;;14.48;;
8564;SDS011;4320;51.498;6.556;2024-03-07T12:15:32;19.70;;;14.70;;
8564;SDS011;4320;51.498;6.556;2024-03-07T12:17:59;20.35;;;14.30;;
8564;SDS011;4320;51.498;6.556;2024-03-07T12:20:27;20.60;;;14.82;;
8564;SDS011;4320;51.498;6.556;2024-03-07T12:23:01;21.20;;;15.23;;
8564;SDS011;4320;51.498;6.556;2024-03-07T12:25:31;20.58;;;15.60;;
8564;SDS011;4320;51.498;6.556;2024-03-07T12:28:01;21.80;;;15.10;;
8564;SDS011;4320;51.498;6.556;2024-03-07T12:30:54;22.90;;;15.55;;
8564;SDS011;4320;51.498;6.556;2024-03-07T12:33:21;20.58;;;15.50;;
8564;SDS011;4320;51.498;6.556;2024-03-07T12:35:50;20.25;;;14.57;;
8564;SDS011;4320;51.498;6.556;2024-03-07T12:38:20;19.60;;;13.60;;
8564;SDS011;4320;51.498;6.556;2024-03-07T12:41:01;23.30;;;15.10;;
8564;SDS011;4320;51.498;6.556;2024-03-07T12:43:38;21.42;;;15.23;;
8564;SDS011;4320;51.498;6.556;2024-03-07T12:46:07;21.52;;;14.70;;
8564;SDS011;4320;51.498;6.556;2024-03-07T12:48:36;20.42;;;15.88;;
8564;SDS011;4320;51.498;6.556;2024-03-07T12:51:03;19.33;;;14.82;;
8564;SDS011;4320;51.498;6.556;2024-03-07T12:53:30;22.08;;;15.40;;
8564;SDS011;4320;51.498;6.556;2024-03-07T12:55:56;21.48;;;15.48;;
8564;SDS011;4320;51.498;6.556;2024-03-07T12:58:22;21.70;;;15.52;;
8564;SDS011;4320;51.498;6.556;2024-03-07T13:00:50;20.70;;;15.35;;
8564;SDS011;4320;51.498;6.556;2024-03-07T13:03:17;20.17;;;14.55;;
8564;SDS011;4320;51.498;6.556;2024-03-07T13:05:42;19.52;;;15.35;;
8564;SDS011;4320;51.498;6.556;2024-03-07T13:08:11;22.55;;;15.07;;
8564;SDS011;4320;51.498;6.556;2024-03-07T13:10:43;24.55;;;15.73;;
8564;SDS011;4320;51.498;6.556;2024-03-07T13:13:10;19.63;;;14.57;;
8564;SDS011;4320;51.498;6.556;2024-03-07T13:15:39;21.08;;;15.82;;
8564;SDS011;4320;51.498;6.556;2024-03-07T13:18:05;22.08;;;16.73;;
8564;SDS011;4320;51.498;6.556;2024-03-07T13:20:32;20.30;;;15.05;;
8564;SDS011;4320;51.498;6.556;2024-03-07T13:22:57;21.90;;;16.70;;
8564;SDS011;4320;51.498;6.556;2024-03-07T13:25:26;20.27;;;16.65;;
8564;SDS011;4320;51.498;6.556;2024-03-07T13:30:21;17.25;;;13.35;;
8564;SDS011;4320;51.498;6.556;2024-03-07T13:32:52;19.33;;;13.80;;
8564;SDS011;4320;51.498;6.556;2024-03-07T13:35:19;20.73;;;15.73;;
8564;SDS011;4320;51.498;6.556;2024-03-07T13:37:45;22.25;;;14.90;;
8564;SDS011;4320;51.498;6.556;2024-03-07T13:40:12;21.42;;;16.30;;
8564;SDS011;4320;51.498;6.556;2024-03-07T13:42:51;21.67;;;15.48;;
8564;SDS011;4320;51.498;6.556;2024-03-07T13:45:17;22.13;;;15.48;;
8564;SDS011;4320;51.498;6.556;2024-03-07T13:47:44;19.48;;;15.73;;
8564;SDS011;4320;51.498;6.556;2024-03-07T13:50:11;21.38;;;15.82;;
8564;SDS011;4320;51.498;6.556;2024-03-07T13:52:37;21.05;;;15.90;;
8564;SDS011;4320;51.498;6.556;2024-03-07T13:55:09;22.50;;;15.73;;
8564;SDS011;4320;51.498;6.556;2024-03-07T13:57:41;21.60;;;15.25;;
8564;SDS011;4320;51.498;6.556;2024-03-07T14:03:25;20.50;;;15.60;;
8564;SDS011;4320;51.498;6.556;2024-03-07T14:06:04;18.35;;;14.18;;
8564;SDS011;4320;51.498;6.556;2024-03-07T14:13:57;17.05;;;13.23;;
8564;SDS011;4320;51.498;6.556;2024-03-07T14:19:32;16.45;;;12.02;;
8564;SDS011;4320;51.498;6.556;2024-03-07T14:27:49;17.35;;;11.73;;
8564;SDS011;4320;51.498;6.556;2024-03-07T14:30:54;16.80;;;12.23;;
8564;SDS011;4320;51.498;6.556;2024-03-07T14:33:27;17.63;;;11.85;;
8564;SDS011;4320;51.498;6.556;2024-03-07T14:36:04;16.13;;;11.60;;
8564;SDS011;4320;51.498;6.556;2024-03-07T14:41:18;16.25;;;11.57;;
8564;SDS011;4320;51.498;6.556;2024-03-07T14:43:48;16.50;;;11.63;;
8564;SDS011;4320;51.498;6.556;2024-03-07T14:46:15;15.52;;;11.63;;
8564;SDS011;4320;51.498;6.556;2024-03-07T14:48:41;16.98;;;12.88;;
8564;SDS011;4320;51.498;6.556;2024-03-07T14:51:08;17.15;;;12.15;;
8564;SDS011;4320;51.498;6.556;2024-03-07T14:53:38;18.75;;;12.25;;
8564;SDS011;4320;51.498;6.556;2024-03-07T14:56:07;16.63;;;11.40;;
8564;SDS011;4320;51.498;6.556;2024-03-07T14:58:34;14.70;;;10.55;;
8564;SDS011;4320;51.498;6.556;2024-03-07T15:01:00;17.70;;;11.98;;
8564;SDS011;4320;51.498;6.556;2024-03-07T15:03:26;14.75;;;10.80;;
8564;SDS011;4320;51.498;6.556;2024-03-07T15:05:55;11.15;;;8.57;;
8564;SDS011;4320;51.498;6.556;2024-03-07T15:08:21;13.43;;;8.98;;
8564;SDS011;4320;51.498;6.556;2024-03-07T15:10:57;11.15;;;8.27;;
8564;SDS011;4320;51.498;6.556;2024-03-07T15:13:33;12.13;;;8.98;;
8564;SDS011;4320;51.498;6.556;2024-03-07T15:15:59;13.60;;;9.75;;
8564;SDS011;4320;51.498;6.556;2024-03-07T15:18:25;13.60;;;9.70;;
8564;SDS011;4320;51.498;6.556;2024-03-07T15:20:51;13.90;;;8.57;;
8564;SDS011;4320;51.498;6.556;2024-03-07T15:23:17;13.48;;;9.13;;
8564;SDS011;4320;51.498;6.556;2024-03-07T15:25:42;12.20;;;9.02;;
8564;SDS011;4320;51.498;6.556;2024-03-07T15:28:08;12.05;;;8.05;;
8564;SDS011;4320;51.498;6.556;2024-03-07T15:30:33;12.98;;;9.20;;